sensor_id;sensor_type;location;lat;lon;timestamp;pressure;altitude;pressure_sealevel;temperature;humidity
43691;BME280;29293;52.190;21.226;2023-08-20T00:00:48;100642.19;;;18.68;100.00
43691;BME280;29293;52.190;21.226;2023-08-20T00:16:27;100644.38;;;18.58;100.00
43691;BME280;29293;52.190;21.226;2023-08-20T00:31:34;100637.35;;;18.52;100.00
43691;BME280;29293;52.190;21.226;2023-08-20T00:46:41;100632.27;;;18.47;100.00
43691;BME280;29293;52.190;21.226;2023-08-20T01:01:48;100632.62;;;18.39;100.00
43691;BME280;29293;52.190;21.226;2023-08-20T01:16:55;100630.69;;;18.30;100.00
43691;BME280;29293;52.190;21.226;2023-08-20T01:32:03;100626.11;;;18.12;100.00
43691;BME280;29293;52.190;21.226;2023-08-20T01:47:10;100634.23;;;18.00;100.00
43691;BME280;29293;52.190;21.226;2023-08-20T02:02:17;100641.94;;;17.91;100.00
43691;BME280;29293;52.190;21.226;2023-08-20T02:17:24;100645.46;;;17.85;100.00
43691;BME280;29293;52.190;21.226;2023-08-20T02:32:31;100648.27;;;17.78;100.00
43691;BME280;29293;52.190;21.226;2023-08-20T02:47:38;100643.91;;;17.75;100.00
43691;BME280;29293;52.190;21.226;2023-08-20T03:02:45;100645.19;;;17.74;100.00
43691;BME280;29293;52.190;21.226;2023-08-20T03:17:52;100632.17;;;17.65;100.00
43691;BME280;29293;52.190;21.226;2023-08-20T03:32:59;100637.48;;;17.56;100.00
43691;BME280;29293;52.190;21.226;2023-08-20T03:48:06;100641.72;;;17.48;100.00
43691;BME280;29293;52.190;21.226;2023-08-20T04:03:13;100642.17;;;17.44;100.00
43691;BME280;29293;52.190;21.226;2023-08-20T04:18:25;100642.92;;;17.43;100.00
43691;BME280;29293;52.190;21.226;2023-08-20T04:33:32;100653.34;;;17.59;100.00
43691;BME280;29293;52.190;21.226;2023-08-20T04:48:39;100655.79;;;17.77;100.00
43691;BME280;29293;52.190;21.226;2023-08-20T05:03:45;100663.50;;;18.04;100.00
43691;BME280;29293;52.190;21.226;2023-08-20T05:18:52;100667.86;;;18.36;100.00
43691;BME280;29293;52.190;21.226;2023-08-20T05:33:59;100669.46;;;18.76;100.00
43691;BME280;29293;52.190;21.226;2023-08-20T05:49:06;100694.73;;;19.20;100.00
43691;BME280;29293;52.190;21.226;2023-08-20T06:04:12;100694.02;;;19.76;100.00
43691;BME280;29293;52.190;21.226;2023-08-20T06:19:19;100685.33;;;20.31;100.00
43691;BME280;29293;52.190;21.226;2023-08-20T06:34:26;100684.84;;;20.88;100.00
43691;BME280;29293;52.190;21.226;2023-08-20T06:49:34;100692.36;;;21.85;100.00
43691;BME280;29293;52.190;21.226;2023-08-20T07:04:41;100704.27;;;23.28;100.00
43691;BME280;29293;52.190;21.226;2023-08-20T07:19:48;100711.69;;;24.47;100.00
43691;BME280;29293;52.190;21.226;2023-08-20T07:34:55;100713.79;;;25.26;100.00
43691;BME280;29293;52.190;21.226;2023-08-20T07:50:02;100719.86;;;25.83;100.00
43691;BME280;29293;52.190;21.226;2023-08-20T08:05:10;100723.60;;;26.30;100.00
43691;BME280;29293;52.190;21.226;2023-08-20T08:20:18;100717.02;;;26.73;100.00
43691;BME280;29293;52.190;21.226;2023-08-20T08:35:25;100712.48;;;27.13;100.00
43691;BME280;29293;52.190;21.226;2023-08-20T08:50:32;100717.53;;;27.53;100.00
43691;BME280;29293;52.190;21.226;2023-08-20T09:05:48;100720.67;;;27.82;100.00
43691;BME280;29293;52.190;21.226;2023-08-20T09:20:56;100727.67;;;27.94;100.00
43691;BME280;29293;52.190;21.226;2023-08-20T09:36:05;100724.27;;;27.95;100.00
43691;BME280;29293;52.190;21.226;2023-08-20T09:51:19;100723.00;;;28.45;100.00
43691;BME280;29293;52.190;21.226;2023-08-20T10:06:30;100712.27;;;28.12;100.00
43691;BME280;29293;52.190;21.226;2023-08-20T10:21:45;100697.41;;;28.59;100.00
43691;BME280;29293;52.190;21.226;2023-08-20T10:36:52;100682.35;;;28.88;100.00
43691;BME280;29293;52.190;21.226;2023-08-20T10:52:03;100672.60;;;29.08;100.00
43691;BME280;29293;52.190;21.226;2023-08-20T11:07:10;100671.07;;;29.56;100.00
43691;BME280;29293;52.190;21.226;2023-08-20T11:22:18;100666.35;;;30.11;100.00
43691;BME280;29293;52.190;21.226;2023-08-20T11:37:25;100653.39;;;30.77;100.00
43691;BME280;29293;52.190;21.226;2023-08-20T11:52:33;100644.17;;;30.49;100.00
43691;BME280;29293;52.190;21.226;2023-08-20T12:07:40;100646.95;;;30.68;100.00
43691;BME280;29293;52.190;21.226;2023-08-20T12:22:47;100632.63;;;30.89;100.00
43691;BME280;29293;52.190;21.226;2023-08-20T12:37:53;100624.68;;;31.26;100.00
43691;BME280;29293;52.190;21.226;2023-08-20T12:53:02;100631.33;;;31.65;100.00
43691;BME280;29293;52.190;21.226;2023-08-20T13:08:12;100626.95;;;31.88;100.00
43691;BME280;29293;52.190;21.226;2023-08-20T13:23:20;100626.23;;;31.88;100.00
43691;BME280;29293;52.190;21.226;2023-08-20T13:38:26;100620.33;;;31.72;100.00
43691;BME280;29293;52.190;21.226;2023-08-20T13:53:33;100608.03;;;31.47;100.00
43691;BME280;29293;52.190;21.226;2023-08-20T14:08:40;100596.65;;;31.55;100.00
43691;BME280;29293;52.190;21.226;2023-08-20T14:23:48;100588.06;;;31.56;100.00
43691;BME280;29293;52.190;21.226;2023-08-20T14:38:54;100577.79;;;31.19;100.00
43691;BME280;29293;52.190;21.226;2023-08-20T14:54:01;100569.42;;;30.59;100.00
43691;BME280;29293;52.190;21.226;2023-08-20T15:09:08;100568.77;;;30.30;100.00
43691;BME280;29293;52.190;21.226;2023-08-20T15:24:20;100572.05;;;29.86;100.00
43691;BME280;29293;52.190;21.226;2023-08-20T15:39:27;100557.36;;;29.45;100.00
43691;BME280;29293;52.190;21.226;2023-08-20T15:54:34;100559.26;;;28.85;100.00
43691;BME280;29293;52.190;21.226;2023-08-20T16:09:39;100552.48;;;28.33;100.00
43691;BME280;29293;52.190;21.226;2023-08-20T16:24:46;100563.19;;;27.78;100.00
43691;BME280;29293;52.190;21.226;2023-08-20T16:39:51;100572.66;;;27.49;100.00
43691;BME280;29293;52.190;21.226;2023-08-20T16:54:58;100579.79;;;27.12;100.00
43691;BME280;29293;52.190;21.226;2023-08-20T17:10:07;100582.88;;;26.75;100.00
43691;BME280;29293;52.190;21.226;2023-08-20T17:25:14;100586.90;;;26.34;100.00
43691;BME280;29293;52.190;21.226;2023-08-20T17:40:25;100592.91;;;25.80;100.00
43691;BME280;29293;52.190;21.226;2023-08-20T17:55:32;100585.45;;;25.31;100.00
43691;BME280;29293;52.190;21.226;2023-08-20T18:10:37;100596.42;;;24.82;100.00
43691;BME280;29293;52.190;21.226;2023-08-20T18:25:44;100614.14;;;24.31;100.00
43691;BME280;29293;52.190;21.226;2023-08-20T18:40:52;100634.27;;;23.82;100.00
43691;BME280;29293;52.190;21.226;2023-08-20T18:55:58;100647.95;;;23.39;100.00
43691;BME280;29293;52.190;21.226;2023-08-20T19:11:05;100655.55;;;23.13;100.00
43691;BME280;29293;52.190;21.226;2023-08-20T19:26:12;100662.16;;;23.04;100.00
43691;BME280;29293;52.190;21.226;2023-08-20T19:41:19;100670.98;;;22.99;100.00
43691;BME280;29293;52.190;21.226;2023-08-20T19:56:26;100679.08;;;22.88;100.00
43691;BME280;29293;52.190;21.226;2023-08-20T20:11:33;100683.14;;;22.71;100.00
43691;BME280;29293;52.190;21.226;2023-08-20T20:26:40;100693.81;;;22.49;100.00
43691;BME280;29293;52.190;21.226;2023-08-20T20:41:47;100700.24;;;22.19;100.00
43691;BME280;29293;52.190;21.226;2023-08-20T20:56:54;100698.79;;;21.90;100.00
43691;BME280;29293;52.190;21.226;2023-08-20T21:12:02;100701.30;;;21.68;100.00
43691;BME280;29293;52.190;21.226;2023-08-20T21:27:09;100710.85;;;21.39;100.00
43691;BME280;29293;52.190;21.226;2023-08-20T21:42:16;100711.52;;;21.23;100.00
43691;BME280;29293;52.190;21.226;2023-08-20T21:57:23;100705.24;;;21.01;100.00
43691;BME280;29293;52.190;21.226;2023-08-20T22:12:29;100710.33;;;20.90;100.00
43691;BME280;29293;52.190;21.226;2023-08-20T22:27:37;100713.48;;;20.72;100.00
43691;BME280;29293;52.190;21.226;2023-08-20T22:42:44;100714.58;;;20.55;100.00
43691;BME280;29293;52.190;21.226;2023-08-20T22:57:51;100712.30;;;20.40;100.00
43691;BME280;29293;52.190;21.226;2023-08-20T23:12:58;100709.82;;;20.20;100.00
43691;BME280;29293;52.190;21.226;2023-08-20T23:28:05;100699.83;;;20.13;100.00
43691;BME280;29293;52.190;21.226;2023-08-20T23:43:12;100699.62;;;20.02;100.00
43691;BME280;29293;52.190;21.226;2023-08-20T23:58:20;100704.11;;;19.95;100.00
